Time;durP1;ratioP1;P1;durP2;ratioP2;P2;SDS_P1;SDS_P2;PMS_P1;PMS_P2;Temp;Humidity;BMP_temperature;BMP_pressure;BME280_temperature;BME280_humidity;BME280_pressure;Samples;Min_cycle;Max_cycle;Signal;HPM_P1;HPM_P2
2022/11/10 00:00:15;;;;;;;9.82;2.60;;;11.00;99.90;;;;;;5072278;28;20224;-52
2022/11/10 00:02:43;;;;;;;8.10;2.60;;;11.00;99.90;;;;;;5072532;28;20174;-53
2022/11/10 00:05:10;;;;;;;6.75;2.30;;;11.00;99.90;;;;;;5072364;28;20162;-51
2022/11/10 00:07:36;;;;;;;10.77;2.72;;;10.90;99.90;;;;;;5072632;28;20170;-54
2022/11/10 00:10:02;;;;;;;5.95;2.35;;;10.90;99.90;;;;;;5072354;28;20189;-53
2022/11/10 00:12:29;;;;;;;8.18;2.60;;;10.90;99.90;;;;;;5072229;28;20245;-52
2022/11/10 00:17:39;;;;;;;13.52;2.80;;;11.00;99.90;;;;;;5072280;28;20172;-51
2022/11/10 00:20:05;;;;;;;9.23;3.22;;;11.10;99.90;;;;;;5072073;28;20284;-51
2022/11/10 00:22:32;;;;;;;10.93;3.20;;;11.10;99.90;;;;;;5072367;28;20199;-51
2022/11/10 00:24:58;;;;;;;8.80;3.38;;;11.10;99.90;;;;;;5072074;28;20634;-51
2022/11/10 00:27:23;;;;;;;9.02;3.15;;;11.00;99.90;;;;;;5072473;28;20193;-52
2022/11/10 00:29:49;;;;;;;9.13;2.88;;;11.10;99.90;;;;;;5071567;28;20166;-52
2022/11/10 00:32:15;;;;;;;10.80;2.97;;;11.10;99.90;;;;;;5071984;28;20518;-51
2022/11/10 00:34:40;;;;;;;4.57;2.60;;;11.00;99.90;;;;;;5072023;28;20648;-51
2022/11/10 00:37:06;;;;;;;8.43;4.07;;;11.00;99.90;;;;;;5071971;28;20587;-52
2022/11/10 00:39:31;;;;;;;10.35;3.22;;;11.00;99.90;;;;;;5071898;28;20693;-51
2022/11/10 00:41:57;;;;;;;6.93;2.90;;;11.00;99.90;;;;;;5071901;28;20170;-51
2022/11/10 00:44:22;;;;;;;5.07;2.60;;;11.00;99.90;;;;;;5072256;28;20226;-51
2022/11/10 00:46:48;;;;;;;9.57;4.30;;;10.90;99.90;;;;;;5071805;28;20166;-51
2022/11/10 00:49:13;;;;;;;8.18;2.92;;;10.90;99.90;;;;;;5071817;28;20158;-52
2022/11/10 00:51:39;;;;;;;8.25;2.55;;;10.90;99.90;;;;;;5071822;28;20195;-51
2022/11/10 00:54:05;;;;;;;10.75;3.03;;;10.90;99.90;;;;;;5071783;28;20161;-52
2022/11/10 00:56:30;;;;;;;8.45;2.92;;;10.90;99.90;;;;;;5071718;28;20170;-51
2022/11/10 00:58:56;;;;;;;14.40;3.80;;;10.90;99.90;;;;;;5071374;28;20225;-51
2022/11/10 01:01:23;;;;;;;11.70;3.53;;;10.80;99.90;;;;;;5071965;28;20170;-51
2022/11/10 01:03:50;;;;;;;9.57;3.15;;;10.80;99.90;;;;;;5071882;28;20635;-51
2022/11/10 01:06:17;;;;;;;14.80;4.18;;;10.80;99.90;;;;;;5071683;28;20177;-51
2022/11/10 01:08:43;;;;;;;9.95;3.55;;;10.80;99.90;;;;;;5071642;28;20227;-51
2022/11/10 01:11:14;;;;;;;5.80;3.35;;;10.80;99.90;;;;;;5071703;28;20536;-51
2022/11/10 01:13:40;;;;;;;6.28;3.08;;;10.70;99.90;;;;;;5071541;28;20207;-51
2022/11/10 01:16:11;;;;;;;11.23;3.78;;;10.70;99.90;;;;;;5071493;28;20681;-52
2022/11/10 01:18:37;;;;;;;10.50;3.60;;;10.70;99.90;;;;;;5071766;28;20176;-51
2022/11/10 01:21:04;;;;;;;8.18;3.65;;;10.70;99.90;;;;;;5071529;28;20533;-51
2022/11/10 01:23:30;;;;;;;7.43;3.72;;;10.70;99.90;;;;;;5071451;28;20226;-52
2022/11/10 01:25:57;;;;;;;9.93;3.35;;;10.70;99.90;;;;;;5071377;28;20166;-51
2022/11/10 01:28:24;;;;;;;6.13;2.60;;;10.70;99.90;;;;;;5071869;28;20166;-52
2022/11/10 01:30:55;;;;;;;8.60;3.08;;;10.60;99.90;;;;;;5071648;28;20174;-52
2022/11/10 01:33:20;;;;;;;13.52;3.25;;;10.60;99.90;;;;;;5071765;28;20166;-52
2022/11/10 01:35:46;;;;;;;8.50;2.70;;;10.60;99.90;;;;;;5071418;28;20170;-52
2022/11/10 01:38:11;;;;;;;7.70;2.78;;;10.60;99.90;;;;;;5071221;28;20193;-52
2022/11/10 01:40:37;;;;;;;7.95;2.25;;;10.50;99.90;;;;;;5071210;28;20287;-51
2022/11/10 01:43:02;;;;;;;9.45;2.78;;;10.50;99.90;;;;;;5074638;28;20174;-51
2022/11/10 01:45:49;;;;;;;9.38;2.10;;;10.50;99.90;;;;;;5075078;28;20170;-51
2022/11/10 01:48:27;;;;;;;8.00;2.53;;;10.50;99.90;;;;;;5074977;28;20158;-51
2022/11/10 01:50:54;;;;;;;6.63;2.25;;;10.50;99.90;;;;;;5075346;28;20174;-51
2022/11/10 01:53:23;;;;;;;4.80;2.30;;;10.50;99.90;;;;;;5075530;28;20527;-52
2022/11/10 01:55:50;;;;;;;7.05;1.92;;;10.50;99.90;;;;;;5074935;28;20185;-51
2022/11/10 01:58:22;;;;;;;6.32;1.73;;;10.50;99.90;;;;;;5074964;28;20174;-52
2022/11/10 02:00:48;;;;;;;5.88;1.80;;;10.40;99.90;;;;;;5074706;28;20221;-52
2022/11/10 02:03:38;;;;;;;4.82;1.60;;;10.50;99.90;;;;;;5074734;28;20209;-51
2022/11/10 02:06:05;;;;;;;9.98;1.83;;;10.40;99.90;;;;;;5061377;28;20182;-52
2022/11/10 02:08:31;;;;;;;6.00;2.17;;;10.40;99.90;;;;;;5074866;28;20589;-52
2022/11/10 02:10:57;;;;;;;13.30;2.60;;;10.40;99.90;;;;;;5074626;28;20192;-52
2022/11/10 02:13:22;;;;;;;10.05;2.65;;;10.40;99.90;;;;;;5074955;28;20532;-52
2022/11/10 02:15:48;;;;;;;6.35;2.00;;;10.40;99.90;;;;;;5074558;28;20564;-52
2022/11/10 02:18:14;;;;;;;6.68;1.88;;;10.40;99.90;;;;;;5074494;28;21047;-52
2022/11/10 02:20:43;;;;;;;5.95;1.90;;;10.40;99.90;;;;;;5074420;28;20211;-52
2022/11/10 02:23:28;;;;;;;8.48;2.92;;;10.40;99.90;;;;;;5074391;28;20166;-51
2022/11/10 02:25:54;;;;;;;6.40;1.88;;;10.40;99.90;;;;;;5074653;28;20575;-51
2022/11/10 02:28:19;;;;;;;9.93;2.28;;;12.50;99.90;;;;;;5074683;28;20672;-51
2022/11/10 02:30:45;;;;;;;8.32;2.35;;;10.40;99.90;;;;;;5074260;28;20633;-51
2022/11/10 02:33:10;;;;;;;8.85;2.50;;;10.40;99.90;;;;;;5074214;28;20170;-50
2022/11/10 02:35:36;;;;;;;13.48;2.47;;;10.30;99.90;;;;;;5074157;28;20174;-51
2022/11/10 02:38:02;;;;;;;10.82;2.40;;;10.40;99.90;;;;;;5074017;28;20182;-51
2022/11/10 02:40:27;;;;;;;10.27;2.38;;;10.40;99.90;;;;;;5074094;28;20206;-51
2022/11/10 02:42:53;;;;;;;12.57;2.33;;;10.40;99.90;;;;;;5074386;28;20502;-51
2022/11/10 02:45:18;;;;;;;8.40;2.13;;;10.30;99.90;;;;;;5074008;28;20259;-51
2022/11/10 02:47:44;;;;;;;8.60;2.53;;;10.30;99.90;;;;;;5073972;28;20246;-51
2022/11/10 02:50:09;;;;;;;9.27;2.10;;;10.30;99.90;;;;;;5074034;28;20173;-52
2022/11/10 02:52:35;;;;;;;10.52;2.60;;;10.30;99.90;;;;;;5073563;28;20158;-52
2022/11/10 02:55:00;;;;;;;10.77;2.03;;;10.30;99.90;;;;;;5073892;28;20227;-53
2022/11/10 02:57:26;;;;;;;8.95;2.63;;;10.30;99.90;;;;;;5073998;28;20166;-52
2022/11/10 02:59:52;;;;;;;12.70;1.85;;;10.30;99.90;;;;;;5073969;28;20214;-52
2022/11/10 03:02:17;;;;;;;14.43;3.90;;;10.30;99.90;;;;;;5073801;28;20170;-52
2022/11/10 03:04:43;;;;;;;7.75;2.00;;;10.30;99.90;;;;;;5073857;28;20170;-52
2022/11/10 03:07:08;;;;;;;12.63;1.90;;;10.30;99.90;;;;;;5073670;28;20166;-52
2022/11/10 03:09:34;;;;;;;11.13;2.22;;;10.30;99.90;;;;;;5073517;28;20163;-52
2022/11/10 03:11:59;;;;;;;19.60;2.90;;;10.30;99.90;;;;;;5073553;28;20216;-52
2022/11/10 03:14:25;;;;;;;8.25;2.25;;;10.30;99.90;;;;;;5073427;28;20202;-52
2022/11/10 03:16:50;;;;;;;11.60;2.58;;;10.30;99.90;;;;;;5073690;28;20173;-52
2022/11/10 03:19:16;;;;;;;9.50;2.30;;;10.30;99.90;;;;;;5073226;28;20548;-52
2022/11/10 03:21:41;;;;;;;10.00;3.05;;;10.30;99.90;;;;;;5073272;28;20638;-52
2022/11/10 03:24:07;;;;;;;8.07;1.90;;;10.30;99.90;;;;;;5073299;28;20686;-51
2022/11/10 03:26:32;;;;;;;8.73;2.13;;;10.30;99.90;;;;;;5073286;28;20166;-52
2022/11/10 03:28:58;;;;;;;5.90;2.15;;;10.30;99.90;;;;;;5073175;28;20492;-51
2022/11/10 03:31:23;;;;;;;7.88;2.33;;;10.30;99.90;;;;;;5073441;28;20192;-51
2022/11/10 03:33:49;;;;;;;11.95;2.45;;;10.30;99.90;;;;;;5055554;28;20552;-51
2022/11/10 03:36:15;;;;;;;13.77;3.40;;;10.30;99.90;;;;;;5073093;28;20174;-52
2022/11/10 03:38:40;;;;;;;5.57;2.40;;;10.30;99.90;;;;;;5055089;28;20166;-51
2022/11/10 03:41:06;;;;;;;6.85;2.40;;;10.30;99.90;;;;;;5072831;28;20681;-51
2022/11/10 03:43:31;;;;;;;8.90;2.72;;;10.30;99.90;;;;;;5072869;28;20541;-51
2022/11/10 03:45:57;;;;;;;13.65;3.22;;;10.40;99.90;;;;;;5072811;28;20536;-51
2022/11/10 03:48:22;;;;;;;14.55;2.17;;;10.30;99.90;;;;;;5073196;28;20162;-51
2022/11/10 03:50:48;;;;;;;6.75;2.30;;;10.40;99.90;;;;;;5071982;28;20320;-51
2022/11/10 03:53:13;;;;;;;8.15;2.00;;;10.40;99.90;;;;;;5072387;28;20227;-51
2022/11/10 03:55:39;;;;;;;10.43;2.60;;;10.30;99.90;;;;;;5054582;28;20175;-51
2022/11/10 03:58:04;;;;;;;10.18;1.88;;;10.40;99.90;;;;;;5072710;28;20260;-51
2022/11/10 04:00:30;;;;;;;13.35;2.30;;;10.40;99.90;;;;;;5072283;28;20304;-51
2022/11/10 04:02:55;;;;;;;10.38;2.88;;;10.30;99.90;;;;;;5072441;28;20166;-52
2022/11/10 04:10:56;;;;;;;8.93;2.05;;;10.30;99.90;;;;;;5072635;28;20637;-51
2022/11/10 04:16:06;;;;;;;7.25;1.70;;;10.20;99.90;;;;;;5072633;28;20173;-51
2022/11/10 04:18:31;;;;;;;14.65;2.75;;;10.20;99.90;;;;;;5072226;28;20170;-51
2022/11/10 04:20:59;;;;;;;14.20;2.55;;;10.20;99.90;;;;;;5072119;28;20657;-52
2022/11/10 04:23:33;;;;;;;9.98;2.30;;;10.20;99.90;;;;;;5072115;28;20614;-51
2022/11/10 04:28:48;;;;;;;13.52;2.25;;;10.20;99.90;;;;;;5072343;28;20189;-51
2022/11/10 04:31:15;;;;;;;6.22;1.92;;;10.20;99.90;;;;;;5071974;28;20170;-53
2022/11/10 04:33:41;;;;;;;10.10;2.22;;;10.20;99.90;;;;;;5071920;28;20170;-51
2022/11/10 04:36:09;;;;;;;6.88;2.58;;;10.20;99.90;;;;;;5071911;28;20166;-51
2022/11/10 04:38:35;;;;;;;11.00;2.20;;;10.20;99.90;;;;;;5071919;28;20188;-51
2022/11/10 04:41:01;;;;;;;9.02;3.05;;;10.30;99.90;;;;;;5072024;28;20717;-51
2022/11/10 04:43:27;;;;;;;7.38;1.80;;;10.20;99.90;;;;;;5071814;28;20576;-53
2022/11/10 04:45:54;;;;;;;9.63;2.15;;;10.20;99.90;;;;;;5071763;28;20166;-52
2022/11/10 04:48:20;;;;;;;12.80;2.20;;;10.20;99.90;;;;;;5072289;28;20178;-53
2022/11/10 04:50:45;;;;;;;13.88;2.95;;;10.20;99.90;;;;;;5071814;28;20613;-52
2022/11/10 04:53:11;;;;;;;9.63;2.28;;;10.20;99.90;;;;;;5072006;28;20580;-52
2022/11/10 04:55:41;;;;;;;10.75;1.83;;;10.20;99.90;;;;;;5071462;28;20559;-53
2022/11/10 04:58:08;;;;;;;9.70;2.38;;;10.20;99.90;;;;;;5071565;28;20633;-52
2022/11/10 05:00:34;;;;;;;14.57;2.20;;;10.10;99.90;;;;;;5071644;28;20202;-51
2022/11/10 05:03:02;;;;;;;10.43;2.20;;;10.10;99.90;;;;;;5071667;28;20184;-51
2022/11/10 05:05:28;;;;;;;7.20;2.30;;;10.10;99.90;;;;;;5071531;28;20157;-52
2022/11/10 05:07:54;;;;;;;5.72;2.00;;;10.10;99.90;;;;;;5071654;28;20528;-51
2022/11/10 05:10:19;;;;;;;10.70;1.80;;;10.10;99.90;;;;;;5072010;28;20185;-51
2022/11/10 05:12:45;;;;;;;10.45;1.80;;;10.10;99.90;;;;;;5071568;28;20170;-52
2022/11/10 05:15:11;;;;;;;10.82;2.60;;;10.10;99.90;;;;;;5072064;28;20173;-51
2022/11/10 05:17:36;;;;;;;8.57;2.17;;;10.10;99.90;;;;;;5075934;28;20178;-52
2022/11/10 05:20:02;;;;;;;10.82;2.17;;;10.10;99.90;;;;;;5075619;28;20205;-51
2022/11/10 05:22:28;;;;;;;7.55;1.95;;;10.00;99.90;;;;;;5075674;28;20707;-51
2022/11/10 05:24:54;;;;;;;12.90;2.30;;;10.00;99.90;;;;;;5075581;28;20197;-51
2022/11/10 05:27:19;;;;;;;8.35;2.30;;;10.10;99.90;;;;;;5075841;28;20625;-52
2022/11/10 05:29:45;;;;;;;12.68;3.38;;;10.00;99.90;;;;;;5075384;28;20201;-51
2022/11/10 05:32:10;;;;;;;10.95;2.85;;;10.00;99.90;;;;;;5075492;28;20216;-52
2022/11/10 05:34:36;;;;;;;13.35;3.00;;;10.10;99.90;;;;;;5075433;28;20169;-52
2022/11/10 05:37:01;;;;;;;10.73;2.70;;;10.00;99.90;;;;;;5075346;28;20725;-54
2022/11/10 05:39:27;;;;;;;6.65;1.90;;;10.00;99.90;;;;;;5075275;28;20682;-53
2022/11/10 05:41:52;;;;;;;14.80;2.20;;;10.00;99.90;;;;;;5075568;28;20198;-52
2022/11/10 05:44:18;;;;;;;11.77;2.90;;;10.00;99.90;;;;;;5075130;28;20204;-54
2022/11/10 05:46:43;;;;;;;11.10;2.50;;;10.00;99.90;;;;;;5075170;28;20249;-54
2022/11/10 05:49:09;;;;;;;9.00;2.40;;;10.00;99.90;;;;;;5075101;28;20175;-52
2022/11/10 05:51:34;;;;;;;9.45;2.42;;;10.00;99.90;;;;;;5075044;28;20170;-52
2022/11/10 05:54:00;;;;;;;12.18;2.60;;;9.90;99.90;;;;;;5074816;28;20166;-52
2022/11/10 05:56:25;;;;;;;14.27;2.97;;;9.90;99.90;;;;;;5074469;28;20169;-52
2022/11/10 05:58:51;;;;;;;12.90;2.50;;;9.90;99.90;;;;;;5074988;28;20222;-53
2022/11/10 06:01:16;;;;;;;17.85;2.60;;;9.90;99.90;;;;;;5074843;28;20289;-53
2022/11/10 06:03:42;;;;;;;9.68;2.17;;;9.90;99.90;;;;;;5074560;28;20296;-51
2022/11/10 06:06:07;;;;;;;24.15;3.42;;;9.90;99.90;;;;;;5074453;28;20220;-54
2022/11/10 06:08:33;;;;;;;7.50;2.50;;;9.90;99.90;;;;;;5074295;28;20170;-53
2022/11/10 06:10:59;;;;;;;13.77;3.55;;;9.90;99.90;;;;;;5074536;28;20169;-52
2022/11/10 06:13:24;;;;;;;8.43;2.20;;;9.80;99.90;;;;;;5056629;28;20573;-53
2022/11/10 06:15:50;;;;;;;11.60;2.30;;;9.80;99.90;;;;;;5074852;28;20248;-54
2022/11/10 06:18:16;;;;;;;14.35;2.67;;;9.80;99.90;;;;;;5074397;28;20194;-52
2022/11/10 06:20:42;;;;;;;11.90;2.22;;;9.90;99.90;;;;;;5074494;28;20208;-53
2022/11/10 06:23:11;;;;;;;8.75;2.30;;;9.90;99.90;;;;;;5074417;28;20174;-54
2022/11/10 06:25:38;;;;;;;12.15;2.35;;;9.90;99.90;;;;;;5074311;28;20660;-53
2022/11/10 06:28:05;;;;;;;10.93;2.13;;;9.90;99.90;;;;;;5073417;28;20166;-53
2022/11/10 06:30:32;;;;;;;8.65;2.42;;;9.90;99.90;;;;;;5074151;28;20162;-53
2022/11/10 06:32:58;;;;;;;6.35;1.80;;;9.90;99.90;;;;;;5074151;28;20158;-53
2022/11/10 06:35:25;;;;;;;15.27;3.13;;;9.90;99.90;;;;;;5074072;28;20712;-54
2022/11/10 06:38:05;;;;;;;16.20;2.70;;;9.90;99.90;;;;;;5074256;28;20265;-53
2022/11/10 06:40:32;;;;;;;11.43;2.20;;;9.90;99.90;;;;;;5074104;28;20256;-53
2022/11/10 06:42:58;;;;;;;9.40;1.92;;;9.90;99.90;;;;;;5073866;28;20194;-54
2022/11/10 06:45:27;;;;;;;12.35;2.20;;;9.90;99.90;;;;;;5055943;28;20205;-51
2022/11/10 06:48:08;;;;;;;11.27;2.35;;;9.90;99.90;;;;;;5056197;28;20174;-51
2022/11/10 06:50:33;;;;;;;10.95;2.30;;;9.90;99.90;;;;;;5073742;28;20170;-51
2022/11/10 06:53:00;;;;;;;8.48;2.33;;;9.90;99.90;;;;;;5073869;28;20528;-49
2022/11/10 06:55:25;;;;;;;10.50;2.20;;;9.90;99.90;;;;;;5073597;28;20185;-49
2022/11/10 06:57:51;;;;;;;14.15;2.55;;;9.90;99.90;;;;;;5074098;28;20158;-49
2022/11/10 07:00:17;;;;;;;10.70;2.13;;;9.90;99.90;;;;;;5073503;28;20221;-50
2022/11/10 07:02:42;;;;;;;17.08;2.40;;;10.00;99.90;;;;;;5073565;28;20166;-51
2022/11/10 07:05:08;;;;;;;8.20;2.83;;;10.00;99.90;;;;;;5073640;28;20166;-50
2022/11/10 07:07:33;;;;;;;11.93;2.47;;;10.00;99.90;;;;;;5073476;28;20166;-49
2022/11/10 07:09:59;;;;;;;14.48;2.65;;;10.00;99.90;;;;;;5073664;28;20227;-51
2022/11/10 07:12:25;;;;;;;11.60;2.58;;;10.00;99.90;;;;;;5073309;28;20771;-49
2022/11/10 07:14:50;;;;;;;12.82;3.20;;;10.00;99.90;;;;;;5073524;28;20170;-49
2022/11/10 07:17:16;;;;;;;14.43;2.17;;;10.00;99.90;;;;;;5073010;28;20170;-49
2022/11/10 07:19:41;;;;;;;10.65;2.67;;;10.00;99.90;;;;;;5073074;28;20220;-49
2022/11/10 07:22:07;;;;;;;12.90;2.40;;;10.00;99.90;;;;;;5055071;28;20205;-49
2022/11/10 07:24:32;;;;;;;13.77;3.15;;;10.10;99.90;;;;;;5073067;28;20174;-51
2022/11/10 07:26:58;;;;;;;14.13;2.85;;;10.10;99.90;;;;;;5072886;28;20177;-50
2022/11/10 07:29:24;;;;;;;14.05;2.85;;;10.00;99.90;;;;;;5072993;28;20170;-50
2022/11/10 07:31:50;;;;;;;12.65;3.13;;;10.10;99.90;;;;;;5073416;28;20166;-49
2022/11/10 07:34:15;;;;;;;11.02;2.47;;;10.10;99.90;;;;;;5072968;28;20181;-50
2022/11/10 07:36:41;;;;;;;9.85;2.60;;;10.20;99.90;;;;;;5072913;28;20170;-50
2022/11/10 07:39:06;;;;;;;11.85;2.47;;;10.20;99.90;;;;;;5071826;28;20181;-52
2022/11/10 07:41:32;;;;;;;14.75;2.60;;;10.20;99.90;;;;;;5072745;28;20170;-49
2022/11/10 07:43:57;;;;;;;13.20;2.67;;;10.30;99.90;;;;;;5055001;28;20166;-52
2022/11/10 07:46:23;;;;;;;25.52;2.88;;;10.30;99.90;;;;;;5072739;28;20533;-49
2022/11/10 07:48:49;;;;;;;11.75;3.03;;;10.40;99.90;;;;;;5055053;28;20166;-50
2022/11/10 07:51:14;;;;;;;11.48;3.03;;;10.40;99.90;;;;;;5072570;28;20166;-52
2022/11/10 07:53:40;;;;;;;12.57;2.72;;;10.50;99.90;;;;;;5072516;28;20174;-52
2022/11/10 07:56:06;;;;;;;10.93;2.40;;;10.50;99.90;;;;;;5072631;28;20180;-51
2022/11/10 07:58:33;;;;;;;18.67;3.03;;;10.60;99.90;;;;;;5072423;28;20305;-50
2022/11/10 08:00:58;;;;;;;10.85;2.70;;;10.60;99.90;;;;;;5072261;28;20197;-49
2022/11/10 08:03:24;;;;;;;9.43;2.50;;;10.60;99.90;;;;;;5072478;28;20162;-49
2022/11/10 08:05:50;;;;;;;13.70;2.50;;;10.60;99.90;;;;;;5072710;28;20257;-51
2022/11/10 08:08:16;;;;;;;13.93;2.72;;;10.60;99.90;;;;;;5072317;28;20162;-49
2022/11/10 08:10:42;;;;;;;14.93;2.80;;;10.60;99.90;;;;;;5072216;28;20577;-49
2022/11/10 08:13:10;;;;;;;13.40;3.53;;;10.60;99.90;;;;;;5072264;28;20241;-49
2022/11/10 08:15:36;;;;;;;9.65;2.15;;;10.60;99.90;;;;;;5072178;28;20653;-49
2022/11/10 08:18:05;;;;;;;12.52;2.80;;;10.60;99.90;;;;;;5072255;28;20838;-51
2022/11/10 08:20:31;;;;;;;14.00;3.72;;;10.60;99.90;;;;;;5054585;28;20665;-49
2022/11/10 08:23:03;;;;;;;20.60;3.35;;;10.70;99.90;;;;;;5072093;28;20528;-51
2022/11/10 08:25:31;;;;;;;13.60;2.20;;;10.70;99.90;;;;;;5072048;28;20518;-49
2022/11/10 08:28:02;;;;;;;12.43;2.50;;;10.70;99.90;;;;;;5072027;28;20174;-52
2022/11/10 08:30:28;;;;;;;9.18;2.25;;;10.70;99.90;;;;;;5071957;28;20579;-49
2022/11/10 08:32:56;;;;;;;11.43;2.58;;;10.60;99.90;;;;;;5072069;28;20200;-48
2022/11/10 08:35:25;;;;;;;12.93;2.90;;;10.70;99.90;;;;;;5072280;28;20174;-49
2022/11/10 08:37:51;;;;;;;11.35;2.83;;;11.90;99.90;;;;;;5072172;28;20177;-49
2022/11/10 08:40:19;;;;;;;13.27;3.15;;;10.70;99.90;;;;;;5071758;28;20209;-50
2022/11/10 08:42:45;;;;;;;15.85;3.38;;;10.70;99.90;;;;;;5072148;28;20166;-52
2022/11/10 08:45:11;;;;;;;16.45;3.70;;;10.70;99.90;;;;;;5071804;28;20178;-50
2022/11/10 08:47:37;;;;;;;13.35;3.17;;;10.70;99.90;;;;;;5054074;28;20162;-52
2022/11/10 08:50:03;;;;;;;28.33;4.45;;;10.70;99.90;;;;;;5071421;28;20224;-52
2022/11/10 08:52:29;;;;;;;20.35;3.58;;;10.70;99.90;;;;;;5071729;28;20223;-52
2022/11/10 08:54:54;;;;;;;14.13;4.03;;;10.70;99.90;;;;;;5071705;28;20177;-50
2022/11/10 08:57:20;;;;;;;20.58;3.85;;;10.70;99.90;;;;;;5072080;28;20166;-49
2022/11/10 08:59:45;;;;;;;16.88;3.72;;;10.70;99.90;;;;;;5071394;28;20217;-49
2022/11/10 09:02:12;;;;;;;16.02;4.43;;;10.80;99.90;;;;;;5071857;28;20264;-49
2022/11/10 09:04:37;;;;;;;16.35;4.43;;;10.90;99.90;;;;;;5071607;28;20193;-49
2022/11/10 09:07:03;;;;;;;20.27;5.30;;;10.90;99.90;;;;;;5071578;28;20166;-49
2022/11/10 09:09:28;;;;;;;12.90;4.70;;;10.90;99.90;;;;;;5071669;28;20181;-49
2022/11/10 09:11:54;;;;;;;18.50;5.50;;;10.90;99.90;;;;;;5071776;28;20176;-49
2022/11/10 09:14:20;;;;;;;21.55;4.57;;;10.90;99.90;;;;;;5072007;28;20622;-49
2022/11/10 09:16:45;;;;;;;19.27;4.55;;;10.90;99.90;;;;;;5071695;28;20165;-50
2022/11/10 09:19:11;;;;;;;18.88;4.10;;;10.90;99.90;;;;;;5071491;28;20158;-50
2022/11/10 09:21:36;;;;;;;21.67;4.43;;;11.00;99.90;;;;;;5071668;28;20182;-50
2022/11/10 09:24:02;;;;;;;15.05;3.67;;;11.00;99.90;;;;;;5071472;28;20645;-50
2022/11/10 09:26:28;;;;;;;15.13;3.38;;;11.00;99.90;;;;;;5071451;28;20166;-50
2022/11/10 09:28:54;;;;;;;15.77;3.72;;;11.00;99.90;;;;;;5071455;28;20529;-52
2022/11/10 09:31:19;;;;;;;23.15;4.55;;;11.10;99.90;;;;;;5071559;28;20166;-52
2022/11/10 09:33:45;;;;;;;11.82;3.80;;;11.10;99.90;;;;;;5071347;28;20183;-52
2022/11/10 09:36:10;;;;;;;17.70;4.57;;;11.10;99.90;;;;;;5071331;28;20219;-52
2022/11/10 09:38:36;;;;;;;20.15;4.63;;;11.10;99.90;;;;;;5071300;28;20626;-50
2022/11/10 09:41:05;;;;;;;21.40;4.32;;;11.20;99.90;;;;;;5071374;28;20213;-49
2022/11/10 09:43:43;;;;;;;20.00;4.03;;;11.30;99.90;;;;;;5071623;28;20511;-52
2022/11/10 09:46:16;;;;;;;15.95;3.00;;;11.30;99.90;;;;;;5071549;28;20193;-50
2022/11/10 09:48:48;;;;;;;13.00;3.83;;;11.30;99.90;;;;;;5071466;28;20173;-49
2022/11/10 09:51:24;;;;;;;12.73;2.65;;;11.40;99.90;;;;;;5071227;28;20166;-50
2022/11/10 09:54:15;;;;;;;8.55;2.40;;;11.50;99.90;;;;;;5071777;28;20253;-50
2022/11/10 09:56:41;;;;;;;15.95;2.85;;;11.50;99.90;;;;;;5071227;28;20233;-49
2022/11/10 09:59:18;;;;;;;12.48;3.50;;;11.60;99.90;;;;;;5071081;28;20647;-49
2022/11/10 10:02:20;;;;;;;18.40;3.25;;;11.60;99.90;;;;;;5071138;28;20207;-50
2022/11/10 10:05:15;;;;;;;10.35;2.30;;;11.60;99.90;;;;;;5074734;28;20256;-52
2022/11/10 10:08:04;;;;;;;11.32;2.80;;;11.70;99.90;;;;;;5074495;28;20169;-52
2022/11/10 10:10:50;;;;;;;9.52;2.60;;;11.80;99.90;;;;;;5074517;28;20162;-53
2022/11/10 10:13:49;;;;;;;16.38;4.10;;;11.90;99.90;;;;;;5073694;28;20558;-51
2022/11/10 10:16:58;;;;;;;13.02;2.50;;;12.00;99.90;;;;;;5074223;28;20162;-52
2022/11/10 10:19:56;;;;;;;9.85;2.00;;;12.00;99.90;;;;;;5073937;28;20206;-52
2022/11/10 10:22:40;;;;;;;11.60;2.63;;;12.20;99.90;;;;;;5074014;28;20170;-49
2022/11/10 10:25:26;;;;;;;11.27;2.78;;;12.20;99.90;;;;;;5074165;28;20170;-49
2022/11/10 10:28:17;;;;;;;12.05;1.67;;;12.20;99.90;;;;;;5074540;28;20174;-48
2022/11/10 10:30:43;;;;;;;12.65;2.78;;;12.20;99.90;;;;;;5074264;28;20166;-49
2022/11/10 10:33:20;;;;;;;11.73;2.25;;;12.30;99.90;;;;;;5074003;28;20188;-49
2022/11/10 10:35:48;;;;;;;12.00;2.45;;;12.30;99.90;;;;;;5073840;28;20173;-49
2022/11/10 10:38:32;;;;;;;12.13;2.20;;;12.50;99.90;;;;;;5074164;28;20178;-50
2022/11/10 10:41:09;;;;;;;13.40;2.50;;;12.60;99.90;;;;;;5074101;28;20602;-50
2022/11/10 10:43:34;;;;;;;8.00;2.40;;;12.70;99.90;;;;;;5073986;28;20162;-51
2022/11/10 10:46:14;;;;;;;12.02;2.45;;;12.70;99.90;;;;;;5073574;28;20177;-50
2022/11/10 10:48:40;;;;;;;8.23;2.13;;;12.70;99.90;;;;;;5073628;28;20174;-52
2022/11/10 10:51:06;;;;;;;11.27;2.42;;;12.70;99.90;;;;;;5073909;28;20219;-51
2022/11/10 10:53:32;;;;;;;11.63;2.20;;;12.70;99.90;;;;;;5073463;28;20261;-52
2022/11/10 10:56:01;;;;;;;14.95;2.35;;;12.80;99.90;;;;;;5074090;28;20173;-51
2022/11/10 10:58:29;;;;;;;15.43;2.22;;;12.80;99.90;;;;;;5073662;28;20162;-52
2022/11/10 11:01:15;;;;;;;10.05;2.53;;;12.90;99.90;;;;;;5074030;28;20275;-52
2022/11/10 11:03:49;;;;;;;7.13;2.40;;;13.10;99.90;;;;;;5073045;28;20173;-49
2022/11/10 11:06:15;;;;;;;8.13;2.08;;;13.20;99.90;;;;;;5072616;28;20181;-57
2022/11/10 11:09:23;;;;;;;11.85;2.40;;;13.30;99.90;;;;;;5072059;28;20530;-52
2022/11/10 11:12:01;;;;;;;17.10;3.13;;;13.30;99.90;;;;;;5072216;28;20204;-47
2022/11/10 11:14:29;;;;;;;11.35;2.03;;;13.40;99.90;;;;;;5071926;28;20181;-47
2022/11/10 11:17:18;;;;;;;7.68;2.30;;;13.40;99.90;;;;;;5072132;28;20255;-48
2022/11/10 11:19:44;;;;;;;8.88;1.98;;;13.50;99.90;;;;;;5072582;28;20186;-56
2022/11/10 11:22:09;;;;;;;9.77;2.13;;;13.50;99.90;;;;;;5071914;28;20178;-51
2022/11/10 11:24:38;;;;;;;10.38;2.00;;;13.40;99.90;;;;;;5071900;28;20196;-56
2022/11/10 11:27:21;;;;;;;5.82;2.00;;;13.70;99.90;;;;;;5072044;28;20507;-48
2022/11/10 11:30:19;;;;;;;7.45;2.00;;;13.70;99.90;;;;;;5071999;28;20505;-53
2022/11/10 11:33:17;;;;;;;9.00;1.85;;;13.80;99.90;;;;;;5058558;28;20178;-54
2022/11/10 11:35:57;;;;;;;8.45;2.75;;;13.80;99.90;;;;;;5071156;28;20210;-54
2022/11/10 11:38:32;;;;;;;9.95;1.92;;;13.70;99.90;;;;;;5072074;28;20178;-54
2022/11/10 11:41:41;;;;;;;9.35;1.80;;;13.70;99.90;;;;;;5071633;28;20205;-56
2022/11/10 11:44:50;;;;;;;7.35;1.70;;;13.60;99.90;;;;;;5071659;28;20174;-53
2022/11/10 11:47:36;;;;;;;8.05;2.00;;;13.90;99.90;;;;;;5033207;28;20189;-49
2022/11/10 11:50:08;;;;;;;2.90;0.95;;;14.00;99.90;;;;;;5071672;28;20169;-51
2022/11/10 11:53:04;;;;;;;6.63;1.95;;;14.20;99.90;;;;;;5072384;28;20162;-49
2022/11/10 11:56:08;;;;;;;7.35;1.77;;;14.30;99.90;;;;;;5072517;28;20629;-51
2022/11/10 11:58:52;;;;;;;6.70;1.73;;;14.30;99.90;;;;;;5072481;28;20235;-52
2022/11/10 12:01:42;;;;;;;4.20;1.63;;;14.20;99.90;;;;;;5072822;28;20205;-50
2022/11/10 12:04:42;;;;;;;8.90;2.60;;;14.40;99.90;;;;;;5072394;28;20223;-49
2022/11/10 12:07:39;;;;;;;4.47;1.73;;;14.40;99.90;;;;;;5072775;28;20253;-50
2022/11/10 12:10:13;;;;;;;6.63;1.77;;;14.50;99.90;;;;;;5072754;28;20311;-50
2022/11/10 12:12:57;;;;;;;3.53;1.50;;;14.50;99.90;;;;;;5072363;28;20165;-53
2022/11/10 12:15:34;;;;;;;7.43;2.25;;;14.60;99.90;;;;;;5072074;28;20190;-51
2022/11/10 12:18:30;;;;;;;8.80;1.95;;;14.60;99.90;;;;;;5072075;28;20705;-52
2022/11/10 12:21:06;;;;;;;9.80;1.65;;;14.70;99.90;;;;;;5077847;28;20290;-51
2022/11/10 12:24:07;;;;;;;6.90;1.85;;;14.70;99.90;;;;;;5092183;28;20153;-53
2022/11/10 12:26:45;;;;;;;6.07;1.70;;;14.70;99.90;;;;;;5092005;28;20633;-54
2022/11/10 12:29:25;;;;;;;7.07;1.40;;;14.80;99.90;;;;;;5092467;28;20527;-53
2022/11/10 12:31:57;;;;;;;3.95;1.38;;;14.80;99.90;;;;;;5092811;28;20624;-53
2022/11/10 12:34:32;;;;;;;5.50;1.90;;;14.80;99.90;;;;;;5091630;28;20586;-50
2022/11/10 12:37:00;;;;;;;5.82;1.80;;;14.80;99.90;;;;;;5092129;28;20176;-49
2022/11/10 12:39:53;;;;;;;7.85;2.10;;;14.90;99.90;;;;;;5091772;28;20628;-53
2022/11/10 12:42:25;;;;;;;6.78;1.80;;;14.80;99.90;;;;;;5073472;28;20177;-51
2022/11/10 12:45:07;;;;;;;3.28;1.42;;;14.90;99.90;;;;;;5091856;28;20566;-52
2022/11/10 12:47:43;;;;;;;4.75;1.95;;;14.90;99.90;;;;;;5091252;28;20318;-53
2022/11/10 12:50:15;;;;;;;5.45;1.60;;;14.90;99.90;;;;;;5091255;28;20167;-51
2022/11/10 12:52:57;;;;;;;7.45;2.00;;;14.90;99.90;;;;;;5090969;28;20520;-54
2022/11/10 12:55:37;;;;;;;3.33;1.20;;;14.80;99.90;;;;;;5091637;28;20176;-54
2022/11/10 12:58:04;;;;;;;5.47;1.30;;;14.80;99.90;;;;;;5091829;28;20165;-51
2022/11/10 13:00:37;;;;;;;7.97;1.45;;;14.80;99.90;;;;;;5091617;28;20767;-51
2022/11/10 13:03:02;;;;;;;6.95;1.65;;;14.80;99.90;;;;;;5072884;28;20169;-55
2022/11/10 13:05:44;;;;;;;7.50;1.55;;;14.80;99.90;;;;;;5091123;28;20564;-54
2022/11/10 13:08:20;;;;;;;2.95;1.58;;;14.70;99.90;;;;;;5090880;28;20162;-51
2022/11/10 13:11:04;;;;;;;4.95;1.40;;;14.80;99.90;;;;;;5090806;28;20188;-54